sensor_id;sensor_type;location;lat;lon;timestamp;pressure;altitude;pressure_sealevel;temperature;humidity
30339;BME280;795;49.296;11.348;2023-05-20T00:00:46;96540.91;;;12.94;100.00
30339;BME280;795;49.296;11.348;2023-05-20T00:03:16;96491.19;;;12.74;100.00
30339;BME280;795;49.296;11.348;2023-05-20T00:05:43;96527.25;;;12.96;100.00
30339;BME280;795;49.296;11.348;2023-05-20T00:08:11;96548.72;;;13.12;100.00
30339;BME280;795;49.296;11.348;2023-05-20T00:10:38;96539.59;;;13.13;100.00
30339;BME280;795;49.296;11.348;2023-05-20T00:13:07;96531.16;;;13.16;100.00
30339;BME280;795;49.296;11.348;2023-05-20T00:15:34;96496.94;;;12.94;100.00
30339;BME280;795;49.296;11.348;2023-05-20T00:18:03;96525.84;;;13.08;100.00
30339;BME280;795;49.296;11.348;2023-05-20T00:20:31;96459.91;;;12.73;100.00
30339;BME280;795;49.296;11.348;2023-05-20T00:22:58;96484.56;;;12.85;100.00
30339;BME280;795;49.296;11.348;2023-05-20T00:25:25;96484.66;;;12.91;100.00
30339;BME280;795;49.296;11.348;2023-05-20T00:27:52;96494.84;;;13.04;100.00
30339;BME280;795;49.296;11.348;2023-05-20T00:30:19;96501.63;;;13.00;100.00
30339;BME280;795;49.296;11.348;2023-05-20T00:32:47;96487.34;;;12.91;100.00
30339;BME280;795;49.296;11.348;2023-05-20T00:35:14;96517.59;;;13.24;100.00
30339;BME280;795;49.296;11.348;2023-05-20T00:37:41;96497.22;;;13.07;100.00
30339;BME280;795;49.296;11.348;2023-05-20T00:40:09;96533.72;;;13.32;100.00
30339;BME280;795;49.296;11.348;2023-05-20T00:42:38;96499.72;;;13.08;100.00
30339;BME280;795;49.296;11.348;2023-05-20T00:45:06;96488.44;;;13.05;100.00
30339;BME280;795;49.296;11.348;2023-05-20T00:47:35;96515.75;;;13.24;100.00
30339;BME280;795;49.296;11.348;2023-05-20T00:50:04;96480.91;;;13.00;100.00
30339;BME280;795;49.296;11.348;2023-05-20T00:52:32;96472.88;;;12.92;100.00
30339;BME280;795;49.296;11.348;2023-05-20T00:54:59;96475.56;;;12.92;100.00
30339;BME280;795;49.296;11.348;2023-05-20T00:57:27;96462.72;;;12.80;100.00
30339;BME280;795;49.296;11.348;2023-05-20T00:59:55;96454.97;;;12.77;100.00
30339;BME280;795;49.296;11.348;2023-05-20T01:02:23;96435.44;;;12.60;100.00
30339;BME280;795;49.296;11.348;2023-05-20T01:04:51;96509.34;;;13.03;100.00
30339;BME280;795;49.296;11.348;2023-05-20T01:07:19;96476.19;;;12.80;100.00
30339;BME280;795;49.296;11.348;2023-05-20T01:09:46;96478.63;;;12.89;100.00
30339;BME280;795;49.296;11.348;2023-05-20T01:12:34;96488.56;;;12.89;100.00
30339;BME280;795;49.296;11.348;2023-05-20T01:15:10;96494.63;;;12.91;100.00
30339;BME280;795;49.296;11.348;2023-05-20T01:17:45;96430.28;;;12.50;100.00
30339;BME280;795;49.296;11.348;2023-05-20T01:20:14;96433.19;;;12.49;100.00
30339;BME280;795;49.296;11.348;2023-05-20T01:22:56;96500.19;;;12.89;100.00
30339;BME280;795;49.296;11.348;2023-05-20T01:25:24;96480.81;;;12.71;100.00
30339;BME280;795;49.296;11.348;2023-05-20T01:27:55;96489.44;;;12.67;100.00
30339;BME280;795;49.296;11.348;2023-05-20T01:30:34;96465.53;;;12.41;100.00
30339;BME280;795;49.296;11.348;2023-05-20T01:33:10;96440.94;;;12.21;100.00
30339;BME280;795;49.296;11.348;2023-05-20T01:35:41;96508.03;;;12.53;100.00
30339;BME280;795;49.296;11.348;2023-05-20T01:38:08;96472.03;;;12.24;100.00
30339;BME280;795;49.296;11.348;2023-05-20T01:40:35;96506.41;;;12.44;100.00
30339;BME280;795;49.296;11.348;2023-05-20T01:43:05;96503.56;;;12.38;100.00
30339;BME280;795;49.296;11.348;2023-05-20T01:45:32;96450.31;;;12.03;100.00
30339;BME280;795;49.296;11.348;2023-05-20T01:48:01;96479.13;;;12.25;100.00
30339;BME280;795;49.296;11.348;2023-05-20T01:50:28;96481.31;;;12.21;100.00
30339;BME280;795;49.296;11.348;2023-05-20T01:52:55;96475.63;;;12.16;100.00
30339;BME280;795;49.296;11.348;2023-05-20T01:55:22;96446.13;;;12.00;100.00
30339;BME280;795;49.296;11.348;2023-05-20T01:57:50;96428.69;;;11.88;100.00
30339;BME280;795;49.296;11.348;2023-05-20T02:00:17;96469.63;;;12.06;100.00
30339;BME280;795;49.296;11.348;2023-05-20T02:02:44;96433.38;;;11.94;100.00
30339;BME280;795;49.296;11.348;2023-05-20T02:05:11;96462.69;;;12.12;100.00
30339;BME280;795;49.296;11.348;2023-05-20T02:07:38;96475.75;;;12.23;100.00
30339;BME280;795;49.296;11.348;2023-05-20T02:10:06;96472.38;;;12.21;100.00
30339;BME280;795;49.296;11.348;2023-05-20T02:12:33;96446.44;;;12.05;100.00
30339;BME280;795;49.296;11.348;2023-05-20T02:15:01;96443.13;;;11.95;100.00
30339;BME280;795;49.296;11.348;2023-05-20T02:17:28;96439.59;;;11.94;100.00
30339;BME280;795;49.296;11.348;2023-05-20T02:19:55;96389.94;;;11.66;100.00
30339;BME280;795;49.296;11.348;2023-05-20T02:22:22;96464.38;;;12.13;100.00
30339;BME280;795;49.296;11.348;2023-05-20T02:24:49;96419.13;;;11.85;100.00
30339;BME280;795;49.296;11.348;2023-05-20T02:27:16;96466.03;;;12.14;100.00
30339;BME280;795;49.296;11.348;2023-05-20T02:29:43;96432.16;;;11.96;100.00
30339;BME280;795;49.296;11.348;2023-05-20T02:32:10;96374.50;;;11.60;100.00
30339;BME280;795;49.296;11.348;2023-05-20T02:34:38;96461.16;;;12.17;100.00
30339;BME280;795;49.296;11.348;2023-05-20T02:37:05;96466.53;;;12.17;100.00
30339;BME280;795;49.296;11.348;2023-05-20T02:39:32;96394.84;;;11.71;100.00
30339;BME280;795;49.296;11.348;2023-05-20T02:41:59;96446.97;;;12.01;100.00
30339;BME280;795;49.296;11.348;2023-05-20T02:44:26;96457.38;;;12.04;100.00
30339;BME280;795;49.296;11.348;2023-05-20T02:46:53;96478.50;;;12.15;100.00
30339;BME280;795;49.296;11.348;2023-05-20T02:49:19;96447.84;;;11.93;100.00
30339;BME280;795;49.296;11.348;2023-05-20T02:51:46;96415.28;;;11.80;100.00
30339;BME280;795;49.296;11.348;2023-05-20T02:54:13;96437.06;;;11.93;100.00
30339;BME280;795;49.296;11.348;2023-05-20T02:56:40;96477.50;;;12.16;100.00
30339;BME280;795;49.296;11.348;2023-05-20T02:59:07;96488.41;;;12.14;100.00
30339;BME280;795;49.296;11.348;2023-05-20T03:01:34;96440.53;;;11.79;100.00
30339;BME280;795;49.296;11.348;2023-05-20T03:04:02;96403.13;;;11.53;100.00
30339;BME280;795;49.296;11.348;2023-05-20T03:06:29;96434.81;;;11.74;100.00
30339;BME280;795;49.296;11.348;2023-05-20T03:08:57;96496.56;;;12.06;100.00
30339;BME280;795;49.296;11.348;2023-05-20T03:11:25;96494.34;;;12.02;100.00
30339;BME280;795;49.296;11.348;2023-05-20T03:13:52;96490.66;;;12.03;100.00
30339;BME280;795;49.296;11.348;2023-05-20T03:16:19;96418.38;;;11.61;100.00
30339;BME280;795;49.296;11.348;2023-05-20T03:18:46;96494.72;;;11.98;100.00
30339;BME280;795;49.296;11.348;2023-05-20T03:21:13;96455.69;;;11.72;100.00
30339;BME280;795;49.296;11.348;2023-05-20T03:23:40;96475.94;;;11.90;100.00
30339;BME280;795;49.296;11.348;2023-05-20T03:26:07;96497.13;;;11.93;100.00
30339;BME280;795;49.296;11.348;2023-05-20T03:28:35;96493.75;;;11.91;100.00
30339;BME280;795;49.296;11.348;2023-05-20T03:31:02;96421.47;;;11.42;100.00
30339;BME280;795;49.296;11.348;2023-05-20T03:33:32;96499.47;;;11.88;100.00
30339;BME280;795;49.296;11.348;2023-05-20T03:35:59;96503.69;;;11.91;100.00
30339;BME280;795;49.296;11.348;2023-05-20T03:38:26;96481.22;;;11.76;100.00
30339;BME280;795;49.296;11.348;2023-05-20T03:40:53;96503.50;;;11.84;100.00
30339;BME280;795;49.296;11.348;2023-05-20T03:43:20;96476.34;;;11.71;100.00
30339;BME280;795;49.296;11.348;2023-05-20T03:45:47;96485.19;;;11.88;100.00
30339;BME280;795;49.296;11.348;2023-05-20T03:48:14;96419.63;;;11.42;100.00
30339;BME280;795;49.296;11.348;2023-05-20T03:50:41;96449.31;;;11.65;100.00
30339;BME280;795;49.296;11.348;2023-05-20T03:53:08;96484.84;;;11.91;100.00
30339;BME280;795;49.296;11.348;2023-05-20T03:55:35;96422.78;;;11.46;100.00
30339;BME280;795;49.296;11.348;2023-05-20T03:58:02;96441.38;;;11.63;100.00
30339;BME280;795;49.296;11.348;2023-05-20T04:00:29;96424.16;;;11.50;100.00
30339;BME280;795;49.296;11.348;2023-05-20T04:02:57;96475.63;;;11.85;100.00
30339;BME280;795;49.296;11.348;2023-05-20T04:05:25;96464.88;;;11.77;100.00
30339;BME280;795;49.296;11.348;2023-05-20T04:07:52;96413.22;;;11.51;100.00
30339;BME280;795;49.296;11.348;2023-05-20T04:10:19;96467.13;;;11.96;100.00
30339;BME280;795;49.296;11.348;2023-05-20T04:12:48;96487.78;;;12.04;100.00
30339;BME280;795;49.296;11.348;2023-05-20T04:15:15;96340.81;;;11.19;100.00
30339;BME280;795;49.296;11.348;2023-05-20T04:17:42;96453.78;;;11.80;100.00
30339;BME280;795;49.296;11.348;2023-05-20T04:20:10;96492.50;;;12.02;100.00
30339;BME280;795;49.296;11.348;2023-05-20T04:22:37;96443.56;;;11.76;100.00
30339;BME280;795;49.296;11.348;2023-05-20T04:25:06;96464.63;;;11.95;100.00
30339;BME280;795;49.296;11.348;2023-05-20T04:27:33;96387.81;;;11.54;100.00
30339;BME280;795;49.296;11.348;2023-05-20T04:30:00;96461.59;;;11.98;100.00
30339;BME280;795;49.296;11.348;2023-05-20T04:32:28;96488.09;;;12.09;100.00
30339;BME280;795;49.296;11.348;2023-05-20T04:34:56;96484.88;;;12.14;100.00
30339;BME280;795;49.296;11.348;2023-05-20T04:37:23;96447.31;;;11.97;100.00
30339;BME280;795;49.296;11.348;2023-05-20T04:39:50;96425.16;;;11.87;100.00
30339;BME280;795;49.296;11.348;2023-05-20T04:42:18;96484.97;;;12.28;100.00
30339;BME280;795;49.296;11.348;2023-05-20T04:44:47;96487.66;;;12.28;100.00
30339;BME280;795;49.296;11.348;2023-05-20T04:47:15;96461.34;;;12.16;100.00
30339;BME280;795;49.296;11.348;2023-05-20T04:49:41;96430.63;;;12.02;100.00
30339;BME280;795;49.296;11.348;2023-05-20T04:52:09;96483.31;;;12.27;100.00
30339;BME280;795;49.296;11.348;2023-05-20T04:54:36;96460.66;;;12.14;100.00
30339;BME280;795;49.296;11.348;2023-05-20T04:57:03;96410.41;;;11.83;100.00
30339;BME280;795;49.296;11.348;2023-05-20T04:59:30;96423.63;;;11.93;100.00
30339;BME280;795;49.296;11.348;2023-05-20T05:01:57;96436.44;;;12.14;100.00
30339;BME280;795;49.296;11.348;2023-05-20T05:04:24;96443.63;;;12.21;100.00
30339;BME280;795;49.296;11.348;2023-05-20T05:06:51;96412.91;;;12.16;100.00
30339;BME280;795;49.296;11.348;2023-05-20T05:09:18;96412.13;;;12.30;100.00
30339;BME280;795;49.296;11.348;2023-05-20T05:11:45;96431.50;;;12.48;100.00
30339;BME280;795;49.296;11.348;2023-05-20T05:14:12;96467.44;;;12.78;100.00
30339;BME280;795;49.296;11.348;2023-05-20T05:16:39;96469.13;;;12.79;100.00
30339;BME280;795;49.296;11.348;2023-05-20T05:19:06;96438.66;;;12.55;100.00
30339;BME280;795;49.296;11.348;2023-05-20T05:21:34;96453.69;;;12.73;100.00
30339;BME280;795;49.296;11.348;2023-05-20T05:24:01;96472.03;;;12.92;100.00
30339;BME280;795;49.296;11.348;2023-05-20T05:26:28;96413.28;;;12.73;100.00
30339;BME280;795;49.296;11.348;2023-05-20T05:28:55;96443.97;;;13.38;100.00
30339;BME280;795;49.296;11.348;2023-05-20T05:31:22;96461.69;;;14.06;100.00
30339;BME280;795;49.296;11.348;2023-05-20T05:33:49;96453.19;;;14.38;100.00
30339;BME280;795;49.296;11.348;2023-05-20T05:36:16;96409.78;;;14.25;100.00
30339;BME280;795;49.296;11.348;2023-05-20T05:38:43;96385.94;;;14.28;100.00
30339;BME280;795;49.296;11.348;2023-05-20T05:41:10;96388.66;;;14.28;100.00
30339;BME280;795;49.296;11.348;2023-05-20T05:43:37;96399.94;;;14.53;100.00
30339;BME280;795;49.296;11.348;2023-05-20T05:46:04;96461.28;;;15.01;100.00
30339;BME280;795;49.296;11.348;2023-05-20T05:48:32;96439.31;;;15.11;100.00
30339;BME280;795;49.296;11.348;2023-05-20T05:50:59;96435.53;;;15.05;100.00
30339;BME280;795;49.296;11.348;2023-05-20T05:53:26;96407.41;;;15.27;100.00
30339;BME280;795;49.296;11.348;2023-05-20T05:55:53;96454.41;;;15.88;100.00
30339;BME280;795;49.296;11.348;2023-05-20T05:58:20;96428.81;;;15.91;100.00
30339;BME280;795;49.296;11.348;2023-05-20T06:00:51;96421.25;;;15.80;100.00
30339;BME280;795;49.296;11.348;2023-05-20T06:03:18;96455.56;;;16.14;100.00
30339;BME280;795;49.296;11.348;2023-05-20T06:05:46;96415.06;;;15.92;100.00
30339;BME280;795;49.296;11.348;2023-05-20T06:08:13;96413.91;;;15.67;100.00
30339;BME280;795;49.296;11.348;2023-05-20T06:10:40;96453.81;;;15.93;100.00
30339;BME280;795;49.296;11.348;2023-05-20T06:13:07;96416.47;;;15.82;100.00
30339;BME280;795;49.296;11.348;2023-05-20T06:15:34;96435.75;;;16.13;100.00
30339;BME280;795;49.296;11.348;2023-05-20T06:18:02;96451.75;;;16.02;100.00
30339;BME280;795;49.296;11.348;2023-05-20T06:20:29;96403.78;;;15.89;100.00
30339;BME280;795;49.296;11.348;2023-05-20T06:22:56;96405.06;;;15.93;100.00
30339;BME280;795;49.296;11.348;2023-05-20T06:25:24;96431.63;;;16.17;100.00
30339;BME280;795;49.296;11.348;2023-05-20T06:27:51;96408.50;;;16.15;100.00
30339;BME280;795;49.296;11.348;2023-05-20T06:30:18;96425.81;;;16.27;100.00
30339;BME280;795;49.296;11.348;2023-05-20T06:32:45;96379.00;;;15.85;100.00
30339;BME280;795;49.296;11.348;2023-05-20T06:35:12;96414.59;;;16.36;100.00
30339;BME280;795;49.296;11.348;2023-05-20T06:37:39;96428.44;;;16.61;100.00
30339;BME280;795;49.296;11.348;2023-05-20T06:40:07;96416.56;;;16.82;100.00
30339;BME280;795;49.296;11.348;2023-05-20T06:42:35;96379.84;;;16.59;100.00
30339;BME280;795;49.296;11.348;2023-05-20T06:45:04;96433.66;;;16.89;100.00
30339;BME280;795;49.296;11.348;2023-05-20T06:47:31;96438.50;;;17.06;100.00
30339;BME280;795;49.296;11.348;2023-05-20T06:49:58;96435.34;;;17.29;100.00
30339;BME280;795;49.296;11.348;2023-05-20T06:52:25;96435.97;;;17.31;100.00
30339;BME280;795;49.296;11.348;2023-05-20T06:54:52;96399.22;;;17.55;100.00
30339;BME280;795;49.296;11.348;2023-05-20T06:57:19;96393.16;;;17.59;98.54
30339;BME280;795;49.296;11.348;2023-05-20T06:59:46;96403.13;;;17.78;96.97
30339;BME280;795;49.296;11.348;2023-05-20T07:02:13;96426.81;;;18.16;95.82
30339;BME280;795;49.296;11.348;2023-05-20T07:04:40;96429.63;;;18.47;93.55
30339;BME280;795;49.296;11.348;2023-05-20T07:07:07;96397.00;;;18.47;90.52
30339;BME280;795;49.296;11.348;2023-05-20T07:09:34;96404.44;;;18.89;89.77
30339;BME280;795;49.296;11.348;2023-05-20T07:12:01;96361.16;;;18.19;87.83
30339;BME280;795;49.296;11.348;2023-05-20T07:14:28;96404.25;;;18.53;87.39
30339;BME280;795;49.296;11.348;2023-05-20T07:16:55;96383.88;;;18.31;86.63
30339;BME280;795;49.296;11.348;2023-05-20T07:19:22;96409.06;;;18.58;88.40
30339;BME280;795;49.296;11.348;2023-05-20T07:21:49;96407.44;;;18.81;83.63
30339;BME280;795;49.296;11.348;2023-05-20T07:24:16;96421.84;;;19.13;82.48
30339;BME280;795;49.296;11.348;2023-05-20T07:26:43;96410.97;;;19.38;83.71
30339;BME280;795;49.296;11.348;2023-05-20T07:29:10;96384.00;;;19.54;80.44
30339;BME280;795;49.296;11.348;2023-05-20T07:31:37;96381.50;;;19.53;78.09
30339;BME280;795;49.296;11.348;2023-05-20T07:34:04;96401.03;;;19.68;78.18
30339;BME280;795;49.296;11.348;2023-05-20T07:36:33;96385.03;;;19.10;80.34
30339;BME280;795;49.296;11.348;2023-05-20T07:39:00;96360.56;;;19.29;78.85
30339;BME280;795;49.296;11.348;2023-05-20T07:41:33;96387.16;;;19.27;79.84
30339;BME280;795;49.296;11.348;2023-05-20T07:44:03;96401.94;;;19.62;78.10
30339;BME280;795;49.296;11.348;2023-05-20T07:46:31;96396.44;;;19.19;78.48
30339;BME280;795;49.296;11.348;2023-05-20T07:48:58;96405.91;;;19.41;78.05
30339;BME280;795;49.296;11.348;2023-05-20T07:51:25;96347.47;;;19.80;76.53
30339;BME280;795;49.296;11.348;2023-05-20T07:53:52;96376.44;;;19.93;73.01
30339;BME280;795;49.296;11.348;2023-05-20T07:56:19;96391.41;;;20.38;71.91
30339;BME280;795;49.296;11.348;2023-05-20T07:58:58;96407.84;;;21.02;69.41
30339;BME280;795;49.296;11.348;2023-05-20T08:03:39;96379.09;;;21.41;65.04
30339;BME280;795;49.296;11.348;2023-05-20T08:06:06;96395.59;;;21.23;63.76
30339;BME280;795;49.296;11.348;2023-05-20T08:08:33;96387.19;;;21.36;64.32
30339;BME280;795;49.296;11.348;2023-05-20T08:11:01;96338.72;;;21.20;62.69
30339;BME280;795;49.296;11.348;2023-05-20T08:13:29;96362.22;;;20.68;62.62
30339;BME280;795;49.296;11.348;2023-05-20T08:15:56;96361.41;;;21.32;64.70
30339;BME280;795;49.296;11.348;2023-05-20T08:18:24;96386.19;;;21.65;61.75
30339;BME280;795;49.296;11.348;2023-05-20T08:20:51;96324.31;;;21.71;61.06
30339;BME280;795;49.296;11.348;2023-05-20T08:23:18;96322.63;;;21.93;60.85
30339;BME280;795;49.296;11.348;2023-05-20T08:25:45;96351.41;;;21.61;61.15
30339;BME280;795;49.296;11.348;2023-05-20T08:28:15;96373.75;;;21.46;61.44
30339;BME280;795;49.296;11.348;2023-05-20T08:30:42;96379.69;;;21.55;61.23
30339;BME280;795;49.296;11.348;2023-05-20T08:33:09;96398.16;;;22.22;59.16
30339;BME280;795;49.296;11.348;2023-05-20T08:35:38;96393.44;;;23.02;58.53
30339;BME280;795;49.296;11.348;2023-05-20T08:38:06;96386.22;;;21.89;57.70
30339;BME280;795;49.296;11.348;2023-05-20T08:40:36;96337.28;;;21.87;57.87
30339;BME280;795;49.296;11.348;2023-05-20T08:43:04;96393.84;;;22.26;57.77
30339;BME280;795;49.296;11.348;2023-05-20T08:45:36;96396.47;;;22.89;57.93
30339;BME280;795;49.296;11.348;2023-05-20T08:48:04;96391.38;;;22.25;57.14
30339;BME280;795;49.296;11.348;2023-05-20T08:50:32;96357.81;;;21.66;58.98
30339;BME280;795;49.296;11.348;2023-05-20T08:52:59;96392.06;;;22.32;60.30
30339;BME280;795;49.296;11.348;2023-05-20T08:55:52;96372.75;;;22.78;56.03
30339;BME280;795;49.296;11.348;2023-05-20T08:58:21;96370.59;;;22.40;57.89
30339;BME280;795;49.296;11.348;2023-05-20T09:00:51;96372.75;;;22.10;58.16
30339;BME280;795;49.296;11.348;2023-05-20T09:03:18;96348.75;;;22.01;57.96
30339;BME280;795;49.296;11.348;2023-05-20T09:05:47;96385.84;;;22.76;57.59
30339;BME280;795;49.296;11.348;2023-05-20T09:08:14;96383.41;;;22.63;56.97
30339;BME280;795;49.296;11.348;2023-05-20T09:10:42;96394.53;;;23.35;56.55
30339;BME280;795;49.296;11.348;2023-05-20T09:13:10;96366.44;;;22.78;55.19
30339;BME280;795;49.296;11.348;2023-05-20T09:15:37;96374.19;;;23.31;53.58
30339;BME280;795;49.296;11.348;2023-05-20T09:18:06;96394.72;;;23.45;55.71
30339;BME280;795;49.296;11.348;2023-05-20T09:20:36;96368.97;;;23.29;55.24
30339;BME280;795;49.296;11.348;2023-05-20T09:23:09;96408.50;;;24.21;54.33
30339;BME280;795;49.296;11.348;2023-05-20T09:25:36;96343.25;;;23.47;53.09
30339;BME280;795;49.296;11.348;2023-05-20T09:28:06;96348.38;;;23.27;52.75
30339;BME280;795;49.296;11.348;2023-05-20T09:30:34;96401.25;;;23.27;53.72
30339;BME280;795;49.296;11.348;2023-05-20T09:33:04;96397.09;;;23.08;53.57
30339;BME280;795;49.296;11.348;2023-05-20T09:35:35;96354.63;;;23.05;53.44
30339;BME280;795;49.296;11.348;2023-05-20T09:38:06;96364.19;;;22.91;52.22
30339;BME280;795;49.296;11.348;2023-05-20T09:40:35;96367.47;;;23.55;53.16
30339;BME280;795;49.296;11.348;2023-05-20T09:43:07;96391.84;;;23.90;52.89
30339;BME280;795;49.296;11.348;2023-05-20T09:45:34;96393.09;;;23.82;52.74
30339;BME280;795;49.296;11.348;2023-05-20T09:48:06;96385.31;;;22.63;53.94
30339;BME280;795;49.296;11.348;2023-05-20T09:50:36;96231.13;;;22.12;53.96
30339;BME280;795;49.296;11.348;2023-05-20T09:53:06;96368.03;;;24.12;52.25
30339;BME280;795;49.296;11.348;2023-05-20T09:55:35;96312.88;;;23.92;51.63
30339;BME280;795;49.296;11.348;2023-05-20T09:58:04;96389.25;;;24.65;49.37
30339;BME280;795;49.296;11.348;2023-05-20T10:00:32;96331.66;;;24.70;48.91
30339;BME280;795;49.296;11.348;2023-05-20T10:03:00;96374.66;;;24.37;50.12
30339;BME280;795;49.296;11.348;2023-05-20T10:05:36;96345.16;;;24.76;50.76
30339;BME280;795;49.296;11.348;2023-05-20T10:08:29;96379.03;;;23.95;49.08
30339;BME280;795;49.296;11.348;2023-05-20T10:11:28;96380.88;;;23.51;52.92
30339;BME280;795;49.296;11.348;2023-05-20T10:14:42;96375.50;;;25.13;49.98
30339;BME280;795;49.296;11.348;2023-05-20T10:17:38;96375.31;;;25.93;47.15
30339;BME280;795;49.296;11.348;2023-05-20T10:20:07;96372.91;;;23.88;50.97
30339;BME280;795;49.296;11.348;2023-05-20T10:22:38;96376.59;;;23.10;53.63
30339;BME280;795;49.296;11.348;2023-05-20T10:25:23;96331.84;;;22.60;54.79
30339;BME280;795;49.296;11.348;2023-05-20T10:28:11;96376.88;;;23.59;51.89
30339;BME280;795;49.296;11.348;2023-05-20T10:30:49;96371.56;;;24.07;51.45
30339;BME280;795;49.296;11.348;2023-05-20T10:33:17;96371.03;;;25.70;48.94
30339;BME280;795;49.296;11.348;2023-05-20T10:35:52;96346.34;;;26.32;47.47
30339;BME280;795;49.296;11.348;2023-05-20T10:38:20;96297.81;;;24.37;48.63
30339;BME280;795;49.296;11.348;2023-05-20T10:40:47;96302.16;;;25.55;47.53
30339;BME280;795;49.296;11.348;2023-05-20T10:43:28;96281.88;;;25.25;47.83
30339;BME280;795;49.296;11.348;2023-05-20T10:45:57;96326.28;;;26.37;46.45
30339;BME280;795;49.296;11.348;2023-05-20T10:48:32;96348.66;;;24.93;47.69
30339;BME280;795;49.296;11.348;2023-05-20T10:51:02;96285.88;;;24.22;49.88
30339;BME280;795;49.296;11.348;2023-05-20T10:53:40;96306.59;;;26.08;46.47
30339;BME280;795;49.296;11.348;2023-05-20T10:56:20;96333.78;;;26.57;46.37
30339;BME280;795;49.296;11.348;2023-05-20T10:58:51;96348.50;;;26.20;46.31
30339;BME280;795;49.296;11.348;2023-05-20T11:01:25;96329.78;;;25.39;46.32
30339;BME280;795;49.296;11.348;2023-05-20T11:03:56;96320.81;;;24.80;48.22
30339;BME280;795;49.296;11.348;2023-05-20T11:06:27;96288.97;;;26.09;47.00
30339;BME280;795;49.296;11.348;2023-05-20T11:09:05;96307.81;;;26.43;47.52
30339;BME280;795;49.296;11.348;2023-05-20T11:11:33;96323.44;;;26.17;45.22
30339;BME280;795;49.296;11.348;2023-05-20T11:14:01;96292.41;;;26.37;46.45
30339;BME280;795;49.296;11.348;2023-05-20T11:16:28;96280.53;;;25.27;46.77
30339;BME280;795;49.296;11.348;2023-05-20T11:18:55;96236.81;;;25.67;46.33
30339;BME280;795;49.296;11.348;2023-05-20T11:21:23;96279.50;;;25.33;47.77
30339;BME280;795;49.296;11.348;2023-05-20T11:23:51;96288.44;;;25.19;48.37
30339;BME280;795;49.296;11.348;2023-05-20T11:26:19;96271.44;;;25.27;48.16
30339;BME280;795;49.296;11.348;2023-05-20T11:28:47;96286.16;;;25.94;48.58
30339;BME280;795;49.296;11.348;2023-05-20T11:31:14;96276.34;;;26.08;46.10
30339;BME280;795;49.296;11.348;2023-05-20T11:33:42;96320.50;;;25.08;48.45
30339;BME280;795;49.296;11.348;2023-05-20T11:36:10;96253.56;;;24.82;48.40
30339;BME280;795;49.296;11.348;2023-05-20T11:38:56;96274.31;;;25.89;47.83
30339;BME280;795;49.296;11.348;2023-05-20T11:41:26;96313.25;;;25.29;48.29
30339;BME280;795;49.296;11.348;2023-05-20T11:43:59;96290.72;;;25.68;47.92
30339;BME280;795;49.296;11.348;2023-05-20T11:46:27;96277.22;;;25.25;49.15
30339;BME280;795;49.296;11.348;2023-05-20T11:48:55;96312.06;;;24.88;49.42
30339;BME280;795;49.296;11.348;2023-05-20T11:51:28;96300.56;;;24.64;50.42
30339;BME280;795;49.296;11.348;2023-05-20T11:54:03;96303.31;;;24.37;50.75
30339;BME280;795;49.296;11.348;2023-05-20T11:56:34;96307.75;;;25.65;47.54
30339;BME280;795;49.296;11.348;2023-05-20T11:59:06;96302.59;;;25.79;48.63
30339;BME280;795;49.296;11.348;2023-05-20T12:01:38;96308.94;;;26.37;47.53
30339;BME280;795;49.296;11.348;2023-05-20T12:04:09;96318.47;;;25.62;48.85
30339;BME280;795;49.296;11.348;2023-05-20T12:06:36;96292.84;;;24.34;51.07
30339;BME280;795;49.296;11.348;2023-05-20T12:09:06;96263.88;;;23.35;52.00
30339;BME280;795;49.296;11.348;2023-05-20T12:11:39;96297.13;;;24.25;50.68
30339;BME280;795;49.296;11.348;2023-05-20T12:14:08;96256.56;;;24.27;50.61
30339;BME280;795;49.296;11.348;2023-05-20T12:16:36;96265.06;;;23.61;52.49
30339;BME280;795;49.296;11.348;2023-05-20T12:19:04;96300.34;;;24.39;51.81
30339;BME280;795;49.296;11.348;2023-05-20T12:21:32;96284.75;;;25.40;50.84
30339;BME280;795;49.296;11.348;2023-05-20T12:23:59;96299.81;;;25.32;50.88
30339;BME280;795;49.296;11.348;2023-05-20T12:26:30;96226.81;;;24.73;49.71
30339;BME280;795;49.296;11.348;2023-05-20T12:28:58;96298.59;;;25.50;48.66
30339;BME280;795;49.296;11.348;2023-05-20T12:31:25;96261.88;;;26.53;47.71
30339;BME280;795;49.296;11.348;2023-05-20T12:33:52;96281.16;;;27.79;46.71
30339;BME280;795;49.296;11.348;2023-05-20T12:36:19;96287.66;;;28.18;43.43
30339;BME280;795;49.296;11.348;2023-05-20T12:38:46;96232.44;;;26.54;45.62
30339;BME280;795;49.296;11.348;2023-05-20T12:41:13;96262.47;;;26.70;46.61
30339;BME280;795;49.296;11.348;2023-05-20T12:43:40;96296.09;;;27.73;46.64
30339;BME280;795;49.296;11.348;2023-05-20T12:46:08;96260.66;;;27.95;43.41
30339;BME280;795;49.296;11.348;2023-05-20T12:48:35;96265.41;;;28.00;43.91
30339;BME280;795;49.296;11.348;2023-05-20T12:51:03;96278.81;;;28.26;44.56
30339;BME280;795;49.296;11.348;2023-05-20T12:53:30;96263.53;;;28.39;43.20
30339;BME280;795;49.296;11.348;2023-05-20T12:55:57;96258.31;;;29.73;42.51
30339;BME280;795;49.296;11.348;2023-05-20T12:58:24;96253.75;;;28.57;42.40
30339;BME280;795;49.296;11.348;2023-05-20T13:00:51;96268.00;;;27.16;44.29
30339;BME280;795;49.296;11.348;2023-05-20T13:03:18;96246.50;;;25.80;45.86
30339;BME280;795;49.296;11.348;2023-05-20T13:05:45;96203.78;;;25.16;47.72
30339;BME280;795;49.296;11.348;2023-05-20T13:08:13;96261.50;;;25.16;48.58
30339;BME280;795;49.296;11.348;2023-05-20T13:10:41;96246.31;;;24.45;49.99
30339;BME280;795;49.296;11.348;2023-05-20T13:13:08;96264.00;;;24.85;49.52
30339;BME280;795;49.296;11.348;2023-05-20T13:15:35;96246.06;;;26.03;48.15